KITR

Kit Carson County Airport

Burlington, Colorado, USA
METAR KITR 172053Z AUTO 30006G16KT 10SM CLR 11/M12 A3007 RMK AO2 SLP182 T01111117 58013
Observed Flight Rules
Feb-17 @ 20:53 UTC (40 minutes ago) Visual Flight Rules
Wind Visibility Clouds
300° at 6 knots
 Gusting to 16 knots
10 miles
  • Clear skies
Temperatures Readings
Current 11°C / 52°F
Dewpoint -12°C / 10°F
Humidity 19%
Altimeter 30.07" Hg
Pressure 1018.2 hPa
Elevation 1279
METAR KITR 172053Z AUTO 30006G16KT 10SM CLR 11/M12 A3007 RMK AO2 SLP182 T01111117 58013
Observed Flight Rules
Feb-17 @ 20:53 UTC
(40 minutes ago)
VFR
Wind Visibility
300° at 6 knots
 Gusting to 16 knots
10 miles
Clouds
  • Clear skies
Temperature Dewpoint
11°C / 52°F -12°C / 10°F
Humidity Altimeter Pressure
19% 30.07" Hg 1018.2 hPa